sensor_id;sensor_type;location;lat;lon;timestamp;P1;durP1;ratioP1;P2;durP2;ratioP2
56116;SDS011;41989;45.356;20.392;2024-03-17T00:00:25;61.83;;;43.90;;
56116;SDS011;41989;45.356;20.392;2024-03-17T00:02:51;62.90;;;44.08;;
56116;SDS011;41989;45.356;20.392;2024-03-17T00:05:17;62.70;;;45.08;;
56116;SDS011;41989;45.356;20.392;2024-03-17T00:07:43;59.97;;;43.28;;
56116;SDS011;41989;45.356;20.392;2024-03-17T00:10:10;67.18;;;45.10;;
56116;SDS011;41989;45.356;20.392;2024-03-17T00:12:36;62.55;;;44.35;;
56116;SDS011;41989;45.356;20.392;2024-03-17T00:15:03;64.03;;;46.88;;
56116;SDS011;41989;45.356;20.392;2024-03-17T00:17:30;77.28;;;54.92;;
56116;SDS011;41989;45.356;20.392;2024-03-17T00:20:02;89.10;;;62.60;;
56116;SDS011;41989;45.356;20.392;2024-03-17T00:22:43;98.10;;;64.50;;
56116;SDS011;41989;45.356;20.392;2024-03-17T00:25:09;108.18;;;65.00;;
56116;SDS011;41989;45.356;20.392;2024-03-17T00:27:36;74.57;;;47.80;;
56116;SDS011;41989;45.356;20.392;2024-03-17T00:30:05;58.40;;;43.65;;
56116;SDS011;41989;45.356;20.392;2024-03-17T00:32:37;60.08;;;44.13;;
56116;SDS011;41989;45.356;20.392;2024-03-17T00:35:03;69.60;;;50.63;;
56116;SDS011;41989;45.356;20.392;2024-03-17T00:37:29;72.10;;;52.25;;
56116;SDS011;41989;45.356;20.392;2024-03-17T00:39:56;81.03;;;55.90;;
56116;SDS011;41989;45.356;20.392;2024-03-17T00:42:22;90.68;;;57.58;;
56116;SDS011;41989;45.356;20.392;2024-03-17T00:44:48;93.75;;;59.13;;
56116;SDS011;41989;45.356;20.392;2024-03-17T00:47:15;98.93;;;60.50;;
56116;SDS011;41989;45.356;20.392;2024-03-17T00:49:41;93.55;;;58.85;;
56116;SDS011;41989;45.356;20.392;2024-03-17T00:52:07;95.97;;;59.63;;
56116;SDS011;41989;45.356;20.392;2024-03-17T00:54:33;94.95;;;57.95;;
56116;SDS011;41989;45.356;20.392;2024-03-17T00:56:59;83.55;;;56.40;;
56116;SDS011;41989;45.356;20.392;2024-03-17T00:59:26;82.75;;;54.35;;
56116;SDS011;41989;45.356;20.392;2024-03-17T01:01:53;76.72;;;52.17;;
56116;SDS011;41989;45.356;20.392;2024-03-17T01:04:19;77.38;;;51.53;;
56116;SDS011;41989;45.356;20.392;2024-03-17T01:06:45;69.57;;;49.95;;
56116;SDS011;41989;45.356;20.392;2024-03-17T01:09:12;71.07;;;49.92;;
56116;SDS011;41989;45.356;20.392;2024-03-17T01:11:38;67.97;;;48.10;;
56116;SDS011;41989;45.356;20.392;2024-03-17T01:14:04;70.88;;;49.35;;
56116;SDS011;41989;45.356;20.392;2024-03-17T01:16:30;65.53;;;48.70;;
56116;SDS011;41989;45.356;20.392;2024-03-17T01:18:56;65.35;;;48.80;;
56116;SDS011;41989;45.356;20.392;2024-03-17T01:21:22;68.28;;;48.13;;
56116;SDS011;41989;45.356;20.392;2024-03-17T01:23:49;73.50;;;50.70;;
56116;SDS011;41989;45.356;20.392;2024-03-17T01:26:16;78.88;;;52.10;;
56116;SDS011;41989;45.356;20.392;2024-03-17T01:28:42;76.13;;;53.72;;
56116;SDS011;41989;45.356;20.392;2024-03-17T01:31:08;80.53;;;57.22;;
56116;SDS011;41989;45.356;20.392;2024-03-17T01:33:34;86.15;;;57.17;;
56116;SDS011;41989;45.356;20.392;2024-03-17T01:36:03;83.93;;;55.95;;
56116;SDS011;41989;45.356;20.392;2024-03-17T01:38:30;81.75;;;57.95;;
56116;SDS011;41989;45.356;20.392;2024-03-17T01:40:57;86.97;;;60.08;;
56116;SDS011;41989;45.356;20.392;2024-03-17T01:43:24;86.63;;;60.05;;
56116;SDS011;41989;45.356;20.392;2024-03-17T01:45:50;84.30;;;60.58;;
56116;SDS011;41989;45.356;20.392;2024-03-17T01:48:16;84.93;;;59.05;;
56116;SDS011;41989;45.356;20.392;2024-03-17T01:50:44;91.55;;;61.72;;
56116;SDS011;41989;45.356;20.392;2024-03-17T01:53:12;86.53;;;61.03;;
56116;SDS011;41989;45.356;20.392;2024-03-17T01:55:39;88.80;;;61.75;;
56116;SDS011;41989;45.356;20.392;2024-03-17T01:58:06;94.47;;;64.05;;
56116;SDS011;41989;45.356;20.392;2024-03-17T02:00:33;87.00;;;64.00;;
56116;SDS011;41989;45.356;20.392;2024-03-17T02:03:02;95.47;;;64.03;;
56116;SDS011;41989;45.356;20.392;2024-03-17T02:05:28;89.15;;;64.07;;
56116;SDS011;41989;45.356;20.392;2024-03-17T02:07:55;82.28;;;60.42;;
56116;SDS011;41989;45.356;20.392;2024-03-17T02:10:21;81.97;;;57.55;;
56116;SDS011;41989;45.356;20.392;2024-03-17T02:12:47;82.35;;;57.38;;
56116;SDS011;41989;45.356;20.392;2024-03-17T02:15:14;78.78;;;56.78;;
56116;SDS011;41989;45.356;20.392;2024-03-17T02:17:40;72.68;;;52.33;;
56116;SDS011;41989;45.356;20.392;2024-03-17T02:20:06;80.13;;;56.88;;
56116;SDS011;41989;45.356;20.392;2024-03-17T02:22:34;76.55;;;56.20;;
56116;SDS011;41989;45.356;20.392;2024-03-17T02:25:01;76.18;;;55.13;;
56116;SDS011;41989;45.356;20.392;2024-03-17T02:27:27;78.18;;;54.65;;
56116;SDS011;41989;45.356;20.392;2024-03-17T02:29:54;68.90;;;50.97;;
56116;SDS011;41989;45.356;20.392;2024-03-17T02:32:20;73.80;;;51.90;;
56116;SDS011;41989;45.356;20.392;2024-03-17T02:34:52;71.65;;;51.60;;
56116;SDS011;41989;45.356;20.392;2024-03-17T02:37:18;67.55;;;50.92;;
56116;SDS011;41989;45.356;20.392;2024-03-17T02:39:44;72.25;;;49.53;;
56116;SDS011;41989;45.356;20.392;2024-03-17T02:42:10;71.60;;;50.17;;
56116;SDS011;41989;45.356;20.392;2024-03-17T02:44:37;69.13;;;50.50;;
56116;SDS011;41989;45.356;20.392;2024-03-17T02:47:05;68.25;;;50.03;;
56116;SDS011;41989;45.356;20.392;2024-03-17T02:49:34;70.63;;;50.00;;
56116;SDS011;41989;45.356;20.392;2024-03-17T02:52:05;74.32;;;51.42;;
56116;SDS011;41989;45.356;20.392;2024-03-17T02:54:32;71.55;;;51.70;;
56116;SDS011;41989;45.356;20.392;2024-03-17T02:57:00;76.72;;;52.25;;
56116;SDS011;41989;45.356;20.392;2024-03-17T02:59:26;76.32;;;51.70;;
56116;SDS011;41989;45.356;20.392;2024-03-17T03:01:53;73.53;;;50.45;;
56116;SDS011;41989;45.356;20.392;2024-03-17T03:04:19;73.00;;;52.58;;
56116;SDS011;41989;45.356;20.392;2024-03-17T03:06:46;76.78;;;53.47;;
56116;SDS011;41989;45.356;20.392;2024-03-17T03:09:13;73.68;;;53.90;;
56116;SDS011;41989;45.356;20.392;2024-03-17T03:11:40;70.47;;;52.65;;
56116;SDS011;41989;45.356;20.392;2024-03-17T03:14:07;75.45;;;53.80;;
56116;SDS011;41989;45.356;20.392;2024-03-17T03:16:33;107.55;;;68.75;;
56116;SDS011;41989;45.356;20.392;2024-03-17T03:18:59;93.85;;;63.22;;
56116;SDS011;41989;45.356;20.392;2024-03-17T03:21:26;80.63;;;59.97;;
56116;SDS011;41989;45.356;20.392;2024-03-17T03:23:52;81.25;;;58.33;;
56116;SDS011;41989;45.356;20.392;2024-03-17T03:26:18;77.78;;;57.20;;
56116;SDS011;41989;45.356;20.392;2024-03-17T03:28:44;87.25;;;60.63;;
56116;SDS011;41989;45.356;20.392;2024-03-17T03:31:11;82.65;;;60.20;;
56116;SDS011;41989;45.356;20.392;2024-03-17T03:33:40;80.72;;;59.63;;
56116;SDS011;41989;45.356;20.392;2024-03-17T03:36:07;83.40;;;60.53;;
56116;SDS011;41989;45.356;20.392;2024-03-17T03:38:33;80.10;;;60.35;;
56116;SDS011;41989;45.356;20.392;2024-03-17T03:41:05;79.70;;;60.25;;
56116;SDS011;41989;45.356;20.392;2024-03-17T03:43:31;84.72;;;60.20;;
56116;SDS011;41989;45.356;20.392;2024-03-17T03:45:59;87.68;;;62.90;;
56116;SDS011;41989;45.356;20.392;2024-03-17T03:48:25;97.05;;;64.60;;
56116;SDS011;41989;45.356;20.392;2024-03-17T03:50:51;90.53;;;64.80;;
56116;SDS011;41989;45.356;20.392;2024-03-17T03:53:17;88.50;;;64.35;;
56116;SDS011;41989;45.356;20.392;2024-03-17T03:55:44;90.85;;;65.55;;
56116;SDS011;41989;45.356;20.392;2024-03-17T03:58:10;91.00;;;67.22;;
56116;SDS011;41989;45.356;20.392;2024-03-17T04:00:37;95.75;;;68.95;;
56116;SDS011;41989;45.356;20.392;2024-03-17T04:03:04;100.03;;;71.03;;
56116;SDS011;41989;45.356;20.392;2024-03-17T04:05:31;95.10;;;69.43;;
56116;SDS011;41989;45.356;20.392;2024-03-17T04:07:57;93.05;;;68.90;;
56116;SDS011;41989;45.356;20.392;2024-03-17T04:10:24;91.55;;;66.05;;
56116;SDS011;41989;45.356;20.392;2024-03-17T04:12:51;94.00;;;66.10;;
56116;SDS011;41989;45.356;20.392;2024-03-17T04:15:17;88.95;;;65.30;;
56116;SDS011;41989;45.356;20.392;2024-03-17T04:17:44;93.18;;;65.57;;
56116;SDS011;41989;45.356;20.392;2024-03-17T04:20:10;89.25;;;63.47;;
56116;SDS011;41989;45.356;20.392;2024-03-17T04:22:43;83.57;;;60.13;;
56116;SDS011;41989;45.356;20.392;2024-03-17T04:25:09;78.43;;;58.38;;
56116;SDS011;41989;45.356;20.392;2024-03-17T04:27:35;88.20;;;60.88;;
56116;SDS011;41989;45.356;20.392;2024-03-17T04:30:02;78.50;;;56.97;;
56116;SDS011;41989;45.356;20.392;2024-03-17T04:32:31;79.50;;;57.33;;
56116;SDS011;41989;45.356;20.392;2024-03-17T04:34:57;77.18;;;58.20;;
56116;SDS011;41989;45.356;20.392;2024-03-17T04:37:24;81.00;;;56.88;;
56116;SDS011;41989;45.356;20.392;2024-03-17T04:39:50;83.07;;;57.60;;
56116;SDS011;41989;45.356;20.392;2024-03-17T04:42:22;76.03;;;56.20;;
56116;SDS011;41989;45.356;20.392;2024-03-17T04:44:51;78.53;;;55.85;;
56116;SDS011;41989;45.356;20.392;2024-03-17T04:47:18;78.15;;;54.42;;
56116;SDS011;41989;45.356;20.392;2024-03-17T04:49:44;76.03;;;55.45;;
56116;SDS011;41989;45.356;20.392;2024-03-17T04:52:12;78.55;;;55.75;;
56116;SDS011;41989;45.356;20.392;2024-03-17T04:54:40;82.22;;;58.63;;
56116;SDS011;41989;45.356;20.392;2024-03-17T04:57:08;81.72;;;58.45;;
56116;SDS011;41989;45.356;20.392;2024-03-17T04:59:34;84.82;;;58.55;;
56116;SDS011;41989;45.356;20.392;2024-03-17T05:02:01;84.35;;;59.03;;
56116;SDS011;41989;45.356;20.392;2024-03-17T05:04:27;82.88;;;60.60;;
56116;SDS011;41989;45.356;20.392;2024-03-17T05:06:56;79.63;;;58.08;;
56116;SDS011;41989;45.356;20.392;2024-03-17T05:09:25;82.97;;;58.70;;
56116;SDS011;41989;45.356;20.392;2024-03-17T05:11:51;78.78;;;58.25;;
56116;SDS011;41989;45.356;20.392;2024-03-17T05:14:17;79.38;;;57.17;;
56116;SDS011;41989;45.356;20.392;2024-03-17T05:16:49;78.60;;;56.85;;
56116;SDS011;41989;45.356;20.392;2024-03-17T05:19:16;62.30;;;44.30;;
56116;SDS011;41989;45.356;20.392;2024-03-17T05:21:43;83.00;;;60.05;;
56116;SDS011;41989;45.356;20.392;2024-03-17T05:24:10;80.10;;;58.03;;
56116;SDS011;41989;45.356;20.392;2024-03-17T05:26:37;79.55;;;57.58;;
56116;SDS011;41989;45.356;20.392;2024-03-17T05:29:03;72.75;;;56.20;;
56116;SDS011;41989;45.356;20.392;2024-03-17T05:31:30;74.72;;;55.08;;
56116;SDS011;41989;45.356;20.392;2024-03-17T05:33:56;70.50;;;52.78;;
56116;SDS011;41989;45.356;20.392;2024-03-17T05:36:23;59.72;;;46.40;;
56116;SDS011;41989;45.356;20.392;2024-03-17T05:38:49;52.08;;;41.47;;
56116;SDS011;41989;45.356;20.392;2024-03-17T05:41:15;61.70;;;36.47;;
56116;SDS011;41989;45.356;20.392;2024-03-17T05:43:41;55.38;;;31.05;;
56116;SDS011;41989;45.356;20.392;2024-03-17T05:46:11;63.50;;;28.92;;
56116;SDS011;41989;45.356;20.392;2024-03-17T05:48:41;40.78;;;24.23;;
56116;SDS011;41989;45.356;20.392;2024-03-17T05:51:07;41.05;;;22.42;;
56116;SDS011;41989;45.356;20.392;2024-03-17T05:53:34;62.67;;;24.50;;
56116;SDS011;41989;45.356;20.392;2024-03-17T05:56:01;47.78;;;23.60;;
56116;SDS011;41989;45.356;20.392;2024-03-17T05:58:27;41.55;;;24.20;;
56116;SDS011;41989;45.356;20.392;2024-03-17T06:00:54;45.40;;;22.88;;
56116;SDS011;41989;45.356;20.392;2024-03-17T06:03:20;33.70;;;22.25;;
56116;SDS011;41989;45.356;20.392;2024-03-17T06:05:47;29.88;;;22.88;;
56116;SDS011;41989;45.356;20.392;2024-03-17T06:08:13;30.02;;;22.00;;
56116;SDS011;41989;45.356;20.392;2024-03-17T06:10:46;27.10;;;20.65;;
56116;SDS011;41989;45.356;20.392;2024-03-17T06:13:13;26.20;;;20.50;;
56116;SDS011;41989;45.356;20.392;2024-03-17T06:15:41;25.92;;;19.98;;
56116;SDS011;41989;45.356;20.392;2024-03-17T06:18:08;24.95;;;20.73;;
56116;SDS011;41989;45.356;20.392;2024-03-17T06:20:38;22.95;;;19.42;;
56116;SDS011;41989;45.356;20.392;2024-03-17T06:23:05;34.65;;;18.98;;
56116;SDS011;41989;45.356;20.392;2024-03-17T06:25:31;37.78;;;17.33;;
56116;SDS011;41989;45.356;20.392;2024-03-17T06:27:57;31.80;;;15.68;;
56116;SDS011;41989;45.356;20.392;2024-03-17T06:30:25;22.77;;;13.90;;
56116;SDS011;41989;45.356;20.392;2024-03-17T06:32:51;20.92;;;12.27;;
56116;SDS011;41989;45.356;20.392;2024-03-17T06:35:17;22.38;;;13.23;;
56116;SDS011;41989;45.356;20.392;2024-03-17T06:37:46;14.55;;;11.65;;
56116;SDS011;41989;45.356;20.392;2024-03-17T06:40:14;16.40;;;12.30;;
56116;SDS011;41989;45.356;20.392;2024-03-17T06:42:40;15.23;;;11.85;;
56116;SDS011;41989;45.356;20.392;2024-03-17T06:45:07;17.65;;;14.20;;
56116;SDS011;41989;45.356;20.392;2024-03-17T06:47:34;16.55;;;12.25;;
56116;SDS011;41989;45.356;20.392;2024-03-17T06:50:01;18.00;;;12.07;;
56116;SDS011;41989;45.356;20.392;2024-03-17T06:52:28;15.93;;;12.02;;
56116;SDS011;41989;45.356;20.392;2024-03-17T06:54:55;15.98;;;11.57;;
56116;SDS011;41989;45.356;20.392;2024-03-17T06:57:21;17.05;;;11.65;;
56116;SDS011;41989;45.356;20.392;2024-03-17T06:59:47;18.38;;;12.85;;
56116;SDS011;41989;45.356;20.392;2024-03-17T07:02:13;20.00;;;10.80;;
56116;SDS011;41989;45.356;20.392;2024-03-17T07:04:42;18.17;;;10.43;;
56116;SDS011;41989;45.356;20.392;2024-03-17T07:07:09;15.13;;;10.13;;
56116;SDS011;41989;45.356;20.392;2024-03-17T07:09:35;17.05;;;9.25;;
56116;SDS011;41989;45.356;20.392;2024-03-17T07:12:01;25.10;;;9.57;;
56116;SDS011;41989;45.356;20.392;2024-03-17T07:14:28;12.85;;;9.25;;
56116;SDS011;41989;45.356;20.392;2024-03-17T07:16:56;16.50;;;8.35;;
56116;SDS011;41989;45.356;20.392;2024-03-17T07:19:22;18.83;;;9.57;;
56116;SDS011;41989;45.356;20.392;2024-03-17T07:21:48;10.82;;;8.02;;
56116;SDS011;41989;45.356;20.392;2024-03-17T07:24:15;13.00;;;8.20;;
56116;SDS011;41989;45.356;20.392;2024-03-17T07:26:41;11.60;;;7.18;;
56116;SDS011;41989;45.356;20.392;2024-03-17T07:29:07;12.50;;;8.23;;
56116;SDS011;41989;45.356;20.392;2024-03-17T07:31:33;15.45;;;8.40;;
56116;SDS011;41989;45.356;20.392;2024-03-17T07:33:59;10.85;;;7.57;;
56116;SDS011;41989;45.356;20.392;2024-03-17T07:36:26;12.02;;;6.72;;
56116;SDS011;41989;45.356;20.392;2024-03-17T07:38:52;11.30;;;6.85;;
56116;SDS011;41989;45.356;20.392;2024-03-17T07:41:18;10.75;;;6.07;;
56116;SDS011;41989;45.356;20.392;2024-03-17T07:43:49;12.50;;;7.05;;
56116;SDS011;41989;45.356;20.392;2024-03-17T07:46:15;23.67;;;10.27;;
56116;SDS011;41989;45.356;20.392;2024-03-17T07:48:42;11.55;;;6.75;;
56116;SDS011;41989;45.356;20.392;2024-03-17T07:51:12;12.10;;;7.30;;
56116;SDS011;41989;45.356;20.392;2024-03-17T07:53:40;11.98;;;6.40;;
56116;SDS011;41989;45.356;20.392;2024-03-17T07:56:09;10.52;;;5.85;;
56116;SDS011;41989;45.356;20.392;2024-03-17T07:58:36;9.43;;;5.63;;
56116;SDS011;41989;45.356;20.392;2024-03-17T08:01:04;7.95;;;4.57;;
56116;SDS011;41989;45.356;20.392;2024-03-17T08:03:31;5.65;;;3.83;;
56116;SDS011;41989;45.356;20.392;2024-03-17T08:05:58;6.15;;;3.80;;
56116;SDS011;41989;45.356;20.392;2024-03-17T08:08:24;4.85;;;3.20;;
56116;SDS011;41989;45.356;20.392;2024-03-17T08:10:50;7.30;;;4.20;;
56116;SDS011;41989;45.356;20.392;2024-03-17T08:13:17;4.25;;;3.13;;
56116;SDS011;41989;45.356;20.392;2024-03-17T08:15:44;3.40;;;2.85;;
56116;SDS011;41989;45.356;20.392;2024-03-17T08:18:14;9.18;;;2.78;;
56116;SDS011;41989;45.356;20.392;2024-03-17T08:20:41;8.82;;;2.60;;
56116;SDS011;41989;45.356;20.392;2024-03-17T08:23:12;4.88;;;1.83;;
56116;SDS011;41989;45.356;20.392;2024-03-17T08:25:38;3.50;;;2.20;;
56116;SDS011;41989;45.356;20.392;2024-03-17T08:28:07;4.65;;;1.98;;
56116;SDS011;41989;45.356;20.392;2024-03-17T08:30:36;2.75;;;1.70;;
56116;SDS011;41989;45.356;20.392;2024-03-17T08:33:02;5.75;;;2.03;;
56116;SDS011;41989;45.356;20.392;2024-03-17T08:35:28;3.10;;;1.60;;
56116;SDS011;41989;45.356;20.392;2024-03-17T08:37:55;4.25;;;1.55;;
56116;SDS011;41989;45.356;20.392;2024-03-17T08:40:21;5.43;;;1.77;;
56116;SDS011;41989;45.356;20.392;2024-03-17T08:42:48;3.00;;;1.58;;
56116;SDS011;41989;45.356;20.392;2024-03-17T08:45:14;2.65;;;1.58;;
56116;SDS011;41989;45.356;20.392;2024-03-17T08:47:41;4.97;;;1.50;;
56116;SDS011;41989;45.356;20.392;2024-03-17T08:50:07;3.03;;;1.50;;
56116;SDS011;41989;45.356;20.392;2024-03-17T08:52:37;5.50;;;1.92;;
56116;SDS011;41989;45.356;20.392;2024-03-17T08:55:04;11.32;;;3.42;;
56116;SDS011;41989;45.356;20.392;2024-03-17T08:57:35;4.25;;;1.83;;
56116;SDS011;41989;45.356;20.392;2024-03-17T09:00:01;3.55;;;1.67;;
56116;SDS011;41989;45.356;20.392;2024-03-17T09:02:27;2.88;;;1.60;;
56116;SDS011;41989;45.356;20.392;2024-03-17T09:04:53;7.03;;;1.98;;
56116;SDS011;41989;45.356;20.392;2024-03-17T09:07:20;4.05;;;1.60;;
56116;SDS011;41989;45.356;20.392;2024-03-17T09:09:48;6.22;;;2.22;;
56116;SDS011;41989;45.356;20.392;2024-03-17T09:12:14;4.75;;;2.30;;
56116;SDS011;41989;45.356;20.392;2024-03-17T09:14:41;7.85;;;2.75;;
56116;SDS011;41989;45.356;20.392;2024-03-17T09:17:07;4.35;;;2.53;;
56116;SDS011;41989;45.356;20.392;2024-03-17T09:19:34;6.38;;;2.40;;
56116;SDS011;41989;45.356;20.392;2024-03-17T09:22:00;3.45;;;2.22;;
56116;SDS011;41989;45.356;20.392;2024-03-17T09:24:26;6.55;;;3.38;;
56116;SDS011;41989;45.356;20.392;2024-03-17T09:26:52;6.32;;;4.05;;
56116;SDS011;41989;45.356;20.392;2024-03-17T09:29:18;4.50;;;3.22;;
56116;SDS011;41989;45.356;20.392;2024-03-17T09:31:45;5.90;;;4.07;;
56116;SDS011;41989;45.356;20.392;2024-03-17T09:34:11;3.08;;;2.50;;
56116;SDS011;41989;45.356;20.392;2024-03-17T09:36:37;6.85;;;2.60;;
56116;SDS011;41989;45.356;20.392;2024-03-17T09:39:03;3.80;;;2.97;;
56116;SDS011;41989;45.356;20.392;2024-03-17T09:41:30;4.95;;;2.53;;
56116;SDS011;41989;45.356;20.392;2024-03-17T09:43:57;4.97;;;2.72;;
56116;SDS011;41989;45.356;20.392;2024-03-17T09:46:24;3.47;;;2.53;;
56116;SDS011;41989;45.356;20.392;2024-03-17T09:48:54;3.45;;;2.65;;
56116;SDS011;41989;45.356;20.392;2024-03-17T09:51:24;4.97;;;2.88;;
56116;SDS011;41989;45.356;20.392;2024-03-17T09:53:51;4.53;;;2.38;;
56116;SDS011;41989;45.356;20.392;2024-03-17T09:56:20;4.72;;;2.53;;
56116;SDS011;41989;45.356;20.392;2024-03-17T10:01:13;2.90;;;1.90;;
56116;SDS011;41989;45.356;20.392;2024-03-17T10:03:49;2.78;;;2.20;;
56116;SDS011;41989;45.356;20.392;2024-03-17T10:06:26;4.00;;;2.55;;
56116;SDS011;41989;45.356;20.392;2024-03-17T10:08:56;12.70;;;3.28;;
56116;SDS011;41989;45.356;20.392;2024-03-17T10:11:23;3.92;;;2.60;;
56116;SDS011;41989;45.356;20.392;2024-03-17T10:14:00;3.60;;;2.58;;
56116;SDS011;41989;45.356;20.392;2024-03-17T10:16:27;5.20;;;2.70;;
56116;SDS011;41989;45.356;20.392;2024-03-17T10:19:13;2.85;;;2.10;;
56116;SDS011;41989;45.356;20.392;2024-03-17T10:21:41;47.05;;;4.28;;
56116;SDS011;41989;45.356;20.392;2024-03-17T10:24:19;5.50;;;3.03;;
56116;SDS011;41989;45.356;20.392;2024-03-17T10:26:47;7.25;;;4.15;;
56116;SDS011;41989;45.356;20.392;2024-03-17T10:31:51;4.43;;;3.08;;
56116;SDS011;41989;45.356;20.392;2024-03-17T10:34:18;8.85;;;3.00;;
56116;SDS011;41989;45.356;20.392;2024-03-17T10:36:45;5.10;;;2.80;;
56116;SDS011;41989;45.356;20.392;2024-03-17T10:39:24;5.45;;;3.97;;
56116;SDS011;41989;45.356;20.392;2024-03-17T10:42:04;5.93;;;3.00;;
56116;SDS011;41989;45.356;20.392;2024-03-17T10:44:31;5.03;;;2.42;;
56116;SDS011;41989;45.356;20.392;2024-03-17T10:46:58;10.80;;;3.08;;
56116;SDS011;41989;45.356;20.392;2024-03-17T10:49:32;7.47;;;1.88;;
56116;SDS011;41989;45.356;20.392;2024-03-17T10:52:00;4.47;;;1.98;;
56116;SDS011;41989;45.356;20.392;2024-03-17T10:54:27;3.42;;;2.10;;
56116;SDS011;41989;45.356;20.392;2024-03-17T10:56:57;5.80;;;2.38;;
56116;SDS011;41989;45.356;20.392;2024-03-17T10:59:28;6.97;;;3.10;;
56116;SDS011;41989;45.356;20.392;2024-03-17T11:02:00;7.97;;;2.70;;
56116;SDS011;41989;45.356;20.392;2024-03-17T11:04:28;7.78;;;1.80;;
56116;SDS011;41989;45.356;20.392;2024-03-17T11:06:54;5.47;;;2.10;;
56116;SDS011;41989;45.356;20.392;2024-03-17T11:09:23;5.40;;;3.42;;
56116;SDS011;41989;45.356;20.392;2024-03-17T11:11:49;14.13;;;2.90;;
56116;SDS011;41989;45.356;20.392;2024-03-17T11:14:17;15.85;;;2.72;;
56116;SDS011;41989;45.356;20.392;2024-03-17T11:16:47;22.52;;;2.20;;
56116;SDS011;41989;45.356;20.392;2024-03-17T11:19:16;38.67;;;4.43;;
56116;SDS011;41989;45.356;20.392;2024-03-17T11:21:43;5.05;;;2.42;;
56116;SDS011;41989;45.356;20.392;2024-03-17T11:24:19;4.30;;;2.42;;
56116;SDS011;41989;45.356;20.392;2024-03-17T11:26:45;3.78;;;1.90;;
56116;SDS011;41989;45.356;20.392;2024-03-17T11:29:28;6.13;;;1.83;;
56116;SDS011;41989;45.356;20.392;2024-03-17T11:31:54;6.60;;;2.17;;
56116;SDS011;41989;45.356;20.392;2024-03-17T11:34:31;3.42;;;2.13;;
56116;SDS011;41989;45.356;20.392;2024-03-17T11:36:58;11.45;;;2.33;;
56116;SDS011;41989;45.356;20.392;2024-03-17T11:42:28;4.97;;;1.83;;
56116;SDS011;41989;45.356;20.392;2024-03-17T11:44:55;3.38;;;1.50;;
56116;SDS011;41989;45.356;20.392;2024-03-17T11:47:21;5.10;;;2.03;;
56116;SDS011;41989;45.356;20.392;2024-03-17T11:49:48;4.50;;;1.88;;
56116;SDS011;41989;45.356;20.392;2024-03-17T11:52:16;3.95;;;1.92;;
56116;SDS011;41989;45.356;20.392;2024-03-17T11:54:46;5.13;;;2.58;;
56116;SDS011;41989;45.356;20.392;2024-03-17T11:59:47;3.67;;;1.88;;
56116;SDS011;41989;45.356;20.392;2024-03-17T12:04:40;5.18;;;1.63;;
56116;SDS011;41989;45.356;20.392;2024-03-17T12:07:09;3.90;;;1.33;;
56116;SDS011;41989;45.356;20.392;2024-03-17T12:09:38;4.38;;;1.67;;
56116;SDS011;41989;45.356;20.392;2024-03-17T12:12:05;3.97;;;1.98;;
56116;SDS011;41989;45.356;20.392;2024-03-17T12:14:32;2.70;;;1.95;;
56116;SDS011;41989;45.356;20.392;2024-03-17T12:17:00;11.10;;;2.97;;
56116;SDS011;41989;45.356;20.392;2024-03-17T12:19:27;3.72;;;2.03;;
56116;SDS011;41989;45.356;20.392;2024-03-17T12:21:53;4.53;;;2.90;;
56116;SDS011;41989;45.356;20.392;2024-03-17T12:24:20;4.65;;;2.15;;
56116;SDS011;41989;45.356;20.392;2024-03-17T12:26:48;5.43;;;1.90;;
56116;SDS011;41989;45.356;20.392;2024-03-17T12:29:48;6.82;;;3.78;;
56116;SDS011;41989;45.356;20.392;2024-03-17T12:34:36;5.27;;;2.80;;
56116;SDS011;41989;45.356;20.392;2024-03-17T12:37:03;5.57;;;3.58;;
56116;SDS011;41989;45.356;20.392;2024-03-17T12:39:32;3.20;;;2.55;;
56116;SDS011;41989;45.356;20.392;2024-03-17T12:42:03;4.78;;;1.95;;
56116;SDS011;41989;45.356;20.392;2024-03-17T12:46:56;3.33;;;2.40;;
56116;SDS011;41989;45.356;20.392;2024-03-17T12:49:22;8.65;;;2.78;;
56116;SDS011;41989;45.356;20.392;2024-03-17T12:51:52;3.60;;;1.85;;
56116;SDS011;41989;45.356;20.392;2024-03-17T12:54:25;4.10;;;2.53;;
56116;SDS011;41989;45.356;20.392;2024-03-17T12:56:53;5.22;;;2.10;;
56116;SDS011;41989;45.356;20.392;2024-03-17T12:59:47;5.45;;;2.83;;
56116;SDS011;41989;45.356;20.392;2024-03-17T13:02:32;6.18;;;1.80;;
56116;SDS011;41989;45.356;20.392;2024-03-17T13:05:06;6.57;;;2.70;;
56116;SDS011;41989;45.356;20.392;2024-03-17T13:07:32;6.85;;;2.92;;
56116;SDS011;41989;45.356;20.392;2024-03-17T13:09:59;5.93;;;2.20;;
56116;SDS011;41989;45.356;20.392;2024-03-17T13:12:25;3.47;;;2.00;;
56116;SDS011;41989;45.356;20.392;2024-03-17T13:14:52;7.15;;;2.20;;
56116;SDS011;41989;45.356;20.392;2024-03-17T13:17:19;3.33;;;2.10;;
56116;SDS011;41989;45.356;20.392;2024-03-17T13:19:45;8.90;;;2.10;;
56116;SDS011;41989;45.356;20.392;2024-03-17T13:22:12;6.68;;;1.95;;
56116;SDS011;41989;45.356;20.392;2024-03-17T13:24:38;8.32;;;3.17;;
56116;SDS011;41989;45.356;20.392;2024-03-17T13:27:05;2.95;;;1.70;;
56116;SDS011;41989;45.356;20.392;2024-03-17T13:29:33;6.63;;;2.30;;
56116;SDS011;41989;45.356;20.392;2024-03-17T13:32:03;7.57;;;2.17;;
56116;SDS011;41989;45.356;20.392;2024-03-17T13:34:30;6.80;;;1.73;;
56116;SDS011;41989;45.356;20.392;2024-03-17T13:36:56;2.85;;;1.60;;
56116;SDS011;41989;45.356;20.392;2024-03-17T13:39:22;5.15;;;1.95;;
56116;SDS011;41989;45.356;20.392;2024-03-17T13:41:49;5.72;;;1.85;;
56116;SDS011;41989;45.356;20.392;2024-03-17T13:44:18;2.70;;;1.40;;
56116;SDS011;41989;45.356;20.392;2024-03-17T13:46:44;4.15;;;1.42;;
56116;SDS011;41989;45.356;20.392;2024-03-17T13:49:10;6.55;;;1.70;;
56116;SDS011;41989;45.356;20.392;2024-03-17T13:51:36;3.22;;;1.50;;
56116;SDS011;41989;45.356;20.392;2024-03-17T13:54:03;6.65;;;2.00;;
56116;SDS011;41989;45.356;20.392;2024-03-17T13:56:29;6.97;;;2.30;;
56116;SDS011;41989;45.356;20.392;2024-03-17T13:58:55;4.95;;;1.40;;
56116;SDS011;41989;45.356;20.392;2024-03-17T14:01:21;3.97;;;1.63;;
56116;SDS011;41989;45.356;20.392;2024-03-17T14:03:47;8.90;;;1.63;;
56116;SDS011;41989;45.356;20.392;2024-03-17T14:06:18;4.78;;;1.52;;
56116;SDS011;41989;45.356;20.392;2024-03-17T14:08:44;4.80;;;1.60;;
56116;SDS011;41989;45.356;20.392;2024-03-17T14:11:11;6.93;;;2.00;;
56116;SDS011;41989;45.356;20.392;2024-03-17T14:13:38;6.50;;;2.03;;
56116;SDS011;41989;45.356;20.392;2024-03-17T14:16:07;4.25;;;2.20;;
56116;SDS011;41989;45.356;20.392;2024-03-17T14:18:33;4.53;;;2.15;;
56116;SDS011;41989;45.356;20.392;2024-03-17T14:21:00;5.82;;;2.20;;
56116;SDS011;41989;45.356;20.392;2024-03-17T14:23:26;5.50;;;2.42;;
56116;SDS011;41989;45.356;20.392;2024-03-17T14:25:55;4.72;;;1.90;;
56116;SDS011;41989;45.356;20.392;2024-03-17T14:28:21;10.70;;;2.78;;
56116;SDS011;41989;45.356;20.392;2024-03-17T14:30:48;5.32;;;2.33;;
56116;SDS011;41989;45.356;20.392;2024-03-17T14:33:16;6.30;;;2.42;;
56116;SDS011;41989;45.356;20.392;2024-03-17T14:35:42;3.58;;;1.95;;
56116;SDS011;41989;45.356;20.392;2024-03-17T14:38:09;4.32;;;1.90;;
56116;SDS011;41989;45.356;20.392;2024-03-17T14:40:35;4.97;;;1.92;;